»·PEaware :: N802TZ KSBA-KSDM

N802TZ :: KSBA-KSDM

FLIGHT INFORMATION

Flight Status: Arrived
Operator: Privately registered:
United States
More flights under this callsign
Pilot: Vinicius U. (17612)
Aircraft: PIPER PA-46-310/350P MALIBU MIRAGE
(PA46)
More flights by this aircraft type
Origin: KSBA Santa Barbara Mun
United States
Destination: KSDM Brown Mun
United States
More flights between these airports :: More routes between these airports
Route: +HENER V186 DARTS V597 MZB
File this flight plan on PilotEdge
Remarks:
Altitude:
(Current/Filed)
15,000ft
Speed:
(Current/Filed)
195kts
Departed: 04-Jan-18 11:52 AM
Arrived: 04-Jan-18 01:04 PM
Distance/Time
Traveled:
181nm/1:12
Distance/Time
To Go:
Arrived

Flight Plot

Page will automatically refresh every two minutes.


Map Options




Map Legend


Flown Route
Filed Route
Departure Airport
Arrival Airport
Navaid (VOR, NDB)
Fix

Horizontal Profiles

Position Reports

Time Latitude Longitude Heading Altitude Ground
Speed
04-Jan-18 11:19 34.432159 -119.837051 338 14ft 0kts
04-Jan-18 11:20 34.432159 -119.837051 338 14ft 0kts
04-Jan-18 11:21 34.432159 -119.837051 338 14ft 0kts
04-Jan-18 11:22 34.432159 -119.837051 338 14ft 0kts
04-Jan-18 11:23 34.432159 -119.837051 338 14ft 0kts
04-Jan-18 11:24 34.432159 -119.837051 338 14ft 0kts
04-Jan-18 11:25 34.432159 -119.837051 338 14ft 0kts
04-Jan-18 11:26 34.432159 -119.837051 338 14ft 0kts
04-Jan-18 11:27 34.432159 -119.837051 338 14ft 0kts
04-Jan-18 11:28 34.432159 -119.837051 338 14ft 0kts
04-Jan-18 11:29 34.432159 -119.837051 338 14ft 0kts
04-Jan-18 11:30 34.432159 -119.837051 338 14ft 0kts
04-Jan-18 11:31 34.432159 -119.837051 338 14ft 0kts
04-Jan-18 11:32 34.432159 -119.837051 338 14ft 0kts
04-Jan-18 11:33 34.432159 -119.837051 338 14ft 0kts
04-Jan-18 11:34 34.432159 -119.837051 338 14ft 0kts
04-Jan-18 11:35 34.432159 -119.837051 338 14ft 0kts
04-Jan-18 11:36 34.432159 -119.837051 338 14ft 0kts
04-Jan-18 11:37 34.432159 -119.837051 338 14ft 0kts
04-Jan-18 11:38 34.432159 -119.837051 338 14ft 0kts
04-Jan-18 11:39 34.432159 -119.837051 338 14ft 0kts
04-Jan-18 11:40 34.432159 -119.837051 338 14ft 0kts
04-Jan-18 11:41 34.432159 -119.837051 338 14ft 0kts
04-Jan-18 11:42 34.432159 -119.837051 338 14ft 0kts
04-Jan-18 11:43 34.432159 -119.837051 338 14ft 0kts
04-Jan-18 11:44 34.432159 -119.837051 338 14ft 0kts
04-Jan-18 11:45 34.432159 -119.837051 338 14ft 0kts
04-Jan-18 11:46 34.432159 -119.837051 338 14ft 0kts
04-Jan-18 11:47 34.432159 -119.837051 338 14ft 0kts
04-Jan-18 11:48 34.432159 -119.837051 338 14ft 0kts
04-Jan-18 11:49 34.432160 -119.837052 338 14ft 0kts
04-Jan-18 11:50 34.432162 -119.837052 338 14ft 0kts
04-Jan-18 11:51 34.432163 -119.837053 338 14ft 0kts
04-Jan-18 11:52 34.432164 -119.837053 338 14ft 0kts
04-Jan-18 11:53 34.432170 -119.837167 214 14ft 5kts
04-Jan-18 11:54 34.430818 -119.839468 241 14ft 14kts
04-Jan-18 11:55 34.430688 -119.839759 241 14ft 0kts
04-Jan-18 11:56 34.430687 -119.839761 241 14ft 0kts
04-Jan-18 11:57 34.429938 -119.840095 166 14ft 0kts
04-Jan-18 11:58 34.410566 -119.833920 164 360ft 117kts
04-Jan-18 11:59 34.376030 -119.822738 164 1376ft 133kts
04-Jan-18 12:00 34.351106 -119.797440 103 2582ft 129kts
04-Jan-18 12:01 34.343700 -119.753072 103 3610ft 137kts
04-Jan-18 12:02 34.339132 -119.708188 92 4795ft 132kts
04-Jan-18 12:03 34.337467 -119.663105 94 5857ft 137kts
04-Jan-18 12:04 34.335301 -119.615054 94 6840ft 150kts
04-Jan-18 12:05 34.331244 -119.557909 96 7007ft 188kts
04-Jan-18 12:06 34.326640 -119.494462 96 7008ft 189kts
04-Jan-18 12:07 34.322101 -119.431882 96 7010ft 184kts
04-Jan-18 12:08 34.318287 -119.370525 96 7012ft 183kts
04-Jan-18 12:09 34.314001 -119.309145 95 7012ft 183kts
04-Jan-18 12:10 34.308422 -119.247823 96 7020ft 183kts
04-Jan-18 12:11 34.303247 -119.196820 97 7022ft 183kts
04-Jan-18 12:12 34.295660 -119.125092 97 7023ft 184kts
04-Jan-18 12:13 34.290398 -119.073892 97 7023ft 184kts
04-Jan-18 12:14 34.282228 -119.012829 99 7025ft 184kts
04-Jan-18 12:15 34.271280 -118.941553 100 7024ft 185kts
04-Jan-18 12:16 34.263427 -118.890732 99 7026ft 184kts
04-Jan-18 12:17 34.254190 -118.829911 99 7027ft 182kts
04-Jan-18 12:18 34.245186 -118.770025 95 7029ft 180kts
04-Jan-18 12:19 34.240641 -118.700531 90 7055ft 177kts
04-Jan-18 12:20 34.238331 -118.650960 90 7057ft 175kts
04-Jan-18 12:21 34.235435 -118.591916 91 7055ft 177kts
04-Jan-18 12:22 34.233184 -118.532381 91 7051ft 178kts
04-Jan-18 12:23 34.230976 -118.472176 91 7052ft 179kts
04-Jan-18 12:24 34.209682 -118.418478 122 7054ft 180kts
04-Jan-18 12:25 34.183689 -118.366820 110 7057ft 179kts
04-Jan-18 12:26 34.166550 -118.311574 108 7527ft 161kts
04-Jan-18 12:27 34.151674 -118.265296 132 8818ft 147kts
04-Jan-18 12:28 34.111084 -118.239214 159 9055ft 186kts
04-Jan-18 12:29 34.062823 -118.214785 159 9039ft 187kts
04-Jan-18 12:30 34.015111 -118.190960 159 9038ft 187kts
04-Jan-18 12:31 33.966810 -118.167028 159 9038ft 187kts
04-Jan-18 12:32 33.918692 -118.143427 159 9036ft 187kts
04-Jan-18 12:33 33.870548 -118.119362 154 9034ft 188kts
04-Jan-18 12:34 33.826078 -118.085778 148 9032ft 188kts
04-Jan-18 12:35 33.782494 -118.051050 145 9032ft 188kts
04-Jan-18 12:36 33.744976 -118.006704 135 9032ft 189kts
04-Jan-18 12:37 33.707784 -117.962014 136 9032ft 189kts
04-Jan-18 12:38 33.670778 -117.917374 135 8984ft 191kts
04-Jan-18 12:39 33.634858 -117.874609 135 9001ft 185kts
04-Jan-18 12:40 33.597924 -117.830851 136 9009ft 187kts
04-Jan-18 12:41 33.560984 -117.786607 136 9009ft 188kts
04-Jan-18 12:42 33.523977 -117.742178 135 9009ft 188kts
04-Jan-18 12:43 33.486601 -117.698514 137 9009ft 188kts
04-Jan-18 12:44 33.448278 -117.655705 138 9010ft 187kts
04-Jan-18 12:45 33.410333 -117.612835 137 9009ft 188kts
04-Jan-18 12:46 33.372241 -117.569872 138 9006ft 188kts
04-Jan-18 12:47 33.333817 -117.526747 137 9005ft 189kts
04-Jan-18 12:48 33.295501 -117.483870 137 9007ft 188kts
04-Jan-18 12:49 33.260582 -117.437624 133 9007ft 186kts
04-Jan-18 12:50 33.230279 -117.387088 122 9003ft 187kts
04-Jan-18 12:51 33.202681 -117.334372 123 9001ft 187kts
04-Jan-18 12:52 33.175321 -117.281374 123 9002ft 186kts
04-Jan-18 12:53 33.148335 -117.228583 122 8955ft 189kts
04-Jan-18 12:54 33.120439 -117.174458 123 8511ft 203kts
04-Jan-18 12:55 33.090403 -117.117071 122 7514ft 201kts
04-Jan-18 12:56 33.048942 -117.077704 158 6535ft 193kts
04-Jan-18 12:57 32.998401 -117.058443 170 5544ft 188kts
04-Jan-18 12:58 32.948748 -117.048516 171 4766ft 169kts
04-Jan-18 12:59 32.904639 -117.040129 171 4001ft 161kts
04-Jan-18 13:00 32.858370 -117.031150 171 3998ft 171kts
04-Jan-18 13:01 32.811193 -117.022236 171 4000ft 172kts
04-Jan-18 13:02 32.764907 -117.011855 170 3642ft 172kts
04-Jan-18 13:03 32.717128 -117.000719 169 2642ft 163kts
04-Jan-18 13:04 32.678968 -116.991718 170 2437ft 132kts
04-Jan-18 13:05 32.640705 -116.984045 174 1777ft 141kts
04-Jan-18 13:06 32.602313 -116.979273 173 1287ft 133kts
04-Jan-18 13:07 32.585553 -116.950093 95 1071ft 109kts
04-Jan-18 13:08 32.575639 -116.947856 287 1124ft 90kts
04-Jan-18 13:09 32.572200 -116.974074 275 530ft 56kts
04-Jan-18 13:10 32.572942 -116.983795 253 530ft 13kts
04-Jan-18 13:11 32.572403 -116.984123 184 530ft 0kts
04-Jan-18 13:12 32.571785 -116.984181 184 530ft 22kts
04-Jan-18 13:13 32.570578 -116.985434 286 530ft 0kts
04-Jan-18 13:14 32.570578 -116.985435 286 530ft 0kts
04-Jan-18 13:15 32.570578 -116.985435 286 530ft 0kts

Navigation Log

Ident Type
1. KSBA Airport
2. HENER Fix
3. FIM Navaid
4. SESPE Fix
5. VNY Navaid
6. DARTS Fix
7. DODGR Fix
8. SLI Navaid
9. MIDDS Fix
10. BALBO Fix
11. KRAUZ Fix
12. DANAH Fix
13. KELPS Fix
14. OCN Navaid
15. HURSI Fix
16. CARIF Fix
17. MZB Navaid
18. KSDM Airport